Garrison, New York
Current Conditions -  °F | °C
As of 11:45 AM on Wednesday 22 Oct 2014 (Local Time) from KSWF Reporting Station
Overcast Overcast  
Wind Chill: 11°   Ceiling: 700
Heat Index: 11°   Visibility: 8mi
Dew Point:   Wind: 12mph
Humidity: 88%   Direction: 30°NNE
Pressure: 29.99"   Gusts: 17mph
Location:  41.38°N, 73.95°W
Report Text: KSWF 221545Z 03010G15KT 8SM OVC007 11/09 A2999
Loading
Personal Weather Stations






























Interactive Weather Map
Tropical Storm Tracking
New forecast layout! Learn more

10-Day Weather Forecast

Advertisements
Track Severe Weather on mobile